Ingram, TX (78025)

11:47 AM CDT on August 24, 2016 (GMT -0500)
HIGH POINTE | | Change Station

Elev 1965 ft 30.11 °N, 99.23 °W | Updated 5 seconds ago

Mostly Cloudy
Mostly Cloudy
79.9 °F
Feels Like 79 °F
N
7.2
Wind Variable Wind from SSE
Gusts 9.8 mph

Today
High -- | Low -- °F
--% Chance of Precip.
Yesterday
High -- | Low -- °F
Precip. -- in
Pressure 30.16 in
Visibility 10.0 miles
Clouds Mostly Cloudy 2800 ft
Heat Index 79 °F
Dew Point 38 °F
Humidity 22%
Rainfall 0.00 in
Snow Depth Not available.
7:09 AM 8:08 PM
Waning Gibbous, 55% visible
METAR KERV 241635Z AUTO 19008G19KT 10SM BKN028 28/22 A3016 RMK AO2 T02830220
Pressure 30.16 in
Visibility 10.0 miles
Clouds Mostly Cloudy 2800 ft
Heat Index 79 °F
Dew Point 38 °F
Humidity 22%
Rainfall 0.00 in
Snow Depth Not available.
7:09 AM 8:08 PM
Waning Gibbous, 55% visible
METAR KERV 241635Z AUTO 19008G19KT 10SM BKN028 28/22 A3016 RMK AO2 T02830220

10-Day Weather Forecast

Almanac

Astronomy

Aug. 24, 2016 Rise Set
Actual Time
Civil Twilight
Nautical Twilight
Astronomical Twilight
Moon
Length of Visible Light
Length of Day
Tomorrow will be .
, % of the Moon is Illuminated

Today's Extremes

State Highs State Lows

Community

WunderPhotos

Upload Photos

1,934,652 photos uploaded!

WunderBlog® & News

Nearby

Air Quality

  Air Quality AQ Index Pollutant
Not available.

Snow Depth

Station Depth Elevation

Earthquake Activity

City Distance Mag. Time & Date
Minimum magnitude displayed is 2.5.

Coastal Water Temperatures

Place Temperature

Stations

Nearby Weather Stations

Station Location Temp. Windchill Dew Point Humidity Wind Precip. Elev Updated Type
                   

Watches & Warnings

There are currently no watches in effect.